Time,TemperatureF,DewpointF,PressureIn,WindDirection,WindDirectionDegrees,WindSpeedMPH,WindSpeedGustMPH,Humidity,HourlyPrecipIn,Conditions,Clouds,dailyrainin,SoftwareType,DateUTC
2013-03-09 00:00:00,36.0,27.1,29.50,NNE,22,0.0,0.0,70,0.00,,OVC240,0.00,VWS V14.01,2013-03-09 06:00:00,
2013-03-09 00:01:00,35.2,27.1,29.47,NNW,338,0.0,1.1,72,0.00,,OVC240,0.00,VWS V14.01,2013-03-09 06:01:00,
2013-03-09 00:11:00,36.3,27.5,29.50,North,0,0.0,0.0,70,0.00,,OVC240,0.00,VWS V14.01,2013-03-09 06:11:00,
2013-03-09 00:21:00,36.3,27.5,29.47,North,0,0.0,0.0,70,0.00,,OVC240,0.00,VWS V14.01,2013-03-09 06:21:00,
2013-03-09 00:31:00,36.0,27.1,29.47,North,0,0.0,0.0,70,0.00,,OVC240,0.00,VWS V14.01,2013-03-09 06:31:00,
2013-03-09 00:41:00,35.6,26.8,29.47,NW,315,0.0,0.0,70,0.00,,OVC240,0.00,VWS V14.01,2013-03-09 06:41:00,
2013-03-09 00:51:00,35.4,26.6,29.47,NW,315,1.1,1.1,70,0.00,,OVC240,0.00,VWS V14.01,2013-03-09 06:51:00,
2013-03-09 01:01:00,35.2,27.1,29.47,NNW,338,0.0,1.1,72,0.00,,OVC240,0.00,VWS V14.01,2013-03-09 07:01:00,
2013-03-09 01:11:00,34.9,26.8,29.47,WNW,292,0.0,1.1,72,0.00,,OVC240,0.00,VWS V14.01,2013-03-09 07:11:00,
2013-03-09 01:21:00,34.9,26.8,29.47,NNW,338,1.3,1.3,72,0.00,,OVC240,0.00,VWS V14.01,2013-03-09 07:21:00,
2013-03-09 01:31:00,35.1,27.3,29.47,NNW,338,2.2,2.2,73,0.00,,OVC240,0.00,VWS V14.01,2013-03-09 07:31:00,
2013-03-09 01:41:00,35.6,28.1,29.47,NNE,22,1.3,2.2,74,0.00,,OVC240,0.00,VWS V14.01,2013-03-09 07:41:00,
2013-03-09 01:51:00,35.4,27.6,29.44,NNE,22,0.0,2.2,73,0.00,,OVC240,0.00,VWS V14.01,2013-03-09 07:51:00,
2013-03-09 02:11:00,34.5,27.1,29.44,NNE,22,1.1,2.2,74,0.00,,OVC240,0.00,VWS V14.01,2013-03-09 08:11:00,
2013-03-09 02:21:00,34.7,27.6,29.41,NNE,22,0.0,2.2,75,0.00,,OVC240,0.00,VWS V14.01,2013-03-09 08:21:00,
2013-03-09 02:31:00,34.5,27.4,29.41,NNE,22,0.0,1.3,75,0.00,,OVC240,0.00,VWS V14.01,2013-03-09 08:31:00,
2013-03-09 02:41:00,34.5,27.4,29.41,NNE,22,0.0,1.1,75,0.00,,OVC240,0.00,VWS V14.01,2013-03-09 08:41:00,
2013-03-09 02:51:00,34.9,28.4,29.44,North,0,1.3,1.3,77,0.00,,OVC240,0.00,VWS V14.01,2013-03-09 08:51:00,
2013-03-09 03:01:00,37.0,30.2,29.44,ENE,68,0.0,0.0,76,0.00,,OVC240,0.00,VWS V14.01,2013-03-09 09:01:00,
2013-03-09 03:11:00,36.0,29.1,29.44,ENE,68,1.1,1.3,76,0.00,,OVC240,0.00,VWS V14.01,2013-03-09 09:11:00,
2013-03-09 03:21:00,36.7,29.5,29.41,ENE,68,0.0,1.3,75,0.00,,OVC240,0.00,VWS V14.01,2013-03-09 09:21:00,
2013-03-09 03:31:00,36.3,29.5,29.41,ENE,68,0.0,1.3,76,0.00,,OVC240,0.00,VWS V14.01,2013-03-09 09:31:00,
2013-03-09 03:41:00,36.1,29.3,29.41,ENE,68,0.0,1.3,76,0.00,,OVC240,0.00,VWS V14.01,2013-03-09 09:41:00,
2013-03-09 03:51:00,36.3,29.5,29.44,ENE,68,0.0,1.1,76,0.00,,OVC240,0.00,VWS V14.01,2013-03-09 09:51:00,
2013-03-09 04:01:00,37.0,30.2,29.44,ENE,68,0.0,0.0,76,0.00,,OVC240,0.00,VWS V14.01,2013-03-09 10:01:00,
2013-03-09 04:11:00,36.7,29.5,29.44,ENE,68,0.0,0.0,75,0.00,,OVC240,0.00,VWS V14.01,2013-03-09 10:11:00,
2013-03-09 04:21:00,36.5,29.3,29.44,ENE,68,0.0,0.0,75,0.00,,OVC240,0.00,VWS V14.01,2013-03-09 10:21:00,
2013-03-09 04:31:00,37.0,29.2,29.44,ENE,68,0.9,0.9,73,0.00,,OVC240,0.00,VWS V14.01,2013-03-09 10:31:00,
2013-03-09 04:41:00,37.8,29.9,29.44,ENE,68,0.0,0.9,73,0.00,,OVC240,0.00,VWS V14.01,2013-03-09 10:41:00,
2013-03-09 04:51:00,38.1,29.9,29.47,North,0,0.0,0.9,72,0.00,,OVC240,0.00,VWS V14.01,2013-03-09 10:51:00,
2013-03-09 05:01:00,38.7,29.7,29.47,North,0,0.0,0.9,70,0.00,,OVC240,0.00,VWS V14.01,2013-03-09 11:01:00,
2013-03-09 05:11:00,38.5,29.2,29.47,North,0,0.0,0.9,69,0.00,,OVC240,0.00,VWS V14.01,2013-03-09 11:11:00,
2013-03-09 05:21:00,38.7,29.7,29.47,NE,45,0.0,2.0,70,0.00,,OVC240,0.00,VWS V14.01,2013-03-09 11:21:00,
2013-03-09 05:31:00,38.8,29.2,29.47,North,0,0.0,0.0,68,0.00,,OVC240,0.00,VWS V14.01,2013-03-09 11:31:00,
2013-03-09 05:41:00,38.3,29.0,29.47,North,0,0.0,0.0,69,0.00,,OVC240,0.00,VWS V14.01,2013-03-09 11:41:00,
2013-03-09 05:51:00,38.3,29.0,29.47,North,0,2.0,2.0,69,0.00,,OVC240,0.00,VWS V14.01,2013-03-09 11:51:00,
2013-03-09 06:01:00,38.7,29.7,29.47,NE,45,0.0,2.0,70,0.00,,OVC240,0.00,VWS V14.01,2013-03-09 12:01:00,
2013-03-09 06:10:00,41.2,33.2,29.50,East,90,0.9,0.9,73,0.00,,OVC240,0.00,VWS V14.01,2013-03-09 12:10:00,
2013-03-09 06:11:00,38.5,29.6,29.47,NE,45,0.0,2.0,70,0.00,,OVC240,0.00,VWS V14.01,2013-03-09 12:11:00,
2013-03-09 06:20:00,44.2,34.7,29.50,NNE,22,0.0,0.0,69,0.00,,OVC240,0.00,VWS V14.01,2013-03-09 12:20:00,
2013-03-09 06:21:00,38.7,29.7,29.47,NE,45,0.0,2.0,70,0.00,,OVC240,0.00,VWS V14.01,2013-03-09 12:21:00,
2013-03-09 06:30:00,47.7,34.0,29.50,ENE,68,1.3,1.3,59,0.00,,OVC240,0.00,VWS V14.01,2013-03-09 12:30:00,
2013-03-09 06:31:00,38.5,29.9,29.47,NE,45,0.0,2.0,71,0.00,,OVC240,0.00,VWS V14.01,2013-03-09 12:31:00,
2013-03-09 06:40:00,48.4,32.5,29.50,NE,45,1.3,2.2,54,0.00,,OVC240,0.00,VWS V14.01,2013-03-09 12:40:00,
2013-03-09 06:41:00,38.5,29.9,29.47,North,0,0.0,0.0,71,0.00,,OVC240,0.00,VWS V14.01,2013-03-09 12:41:00,
2013-03-09 06:50:00,48.0,31.7,29.50,ENE,68,1.1,1.3,53,0.00,,OVC240,0.00,VWS V14.01,2013-03-09 12:50:00,
2013-03-09 06:51:00,38.3,30.1,29.50,North,0,0.0,0.0,72,0.00,,OVC240,0.00,VWS V14.01,2013-03-09 12:51:00,
2013-03-09 07:00:00,49.5,31.6,29.50,NE,45,2.9,2.9,50,0.00,,OVC240,0.00,VWS V14.01,2013-03-09 13:00:00,
2013-03-09 07:09:00,41.2,33.2,29.50,East,90,0.9,0.9,73,0.00,,OVC240,0.00,VWS V14.01,2013-03-09 13:09:00,
2013-03-09 07:10:00,53.2,34.1,29.50,SSE,158,2.0,2.0,48,0.00,,OVC240,0.00,VWS V14.01,2013-03-09 13:10:00,
2013-03-09 07:19:00,44.2,34.7,29.50,NNE,22,0.0,0.0,69,0.00,,OVC240,0.00,VWS V14.01,2013-03-09 13:19:00,
2013-03-09 07:20:00,55.8,32.4,29.50,SSE,158,2.9,3.8,41,0.00,,OVC240,0.00,VWS V14.01,2013-03-09 13:20:00,
2013-03-09 07:29:00,47.7,34.0,29.50,ENE,68,1.3,1.3,59,0.00,,OVC240,0.00,VWS V14.01,2013-03-09 13:29:00,
2013-03-09 07:30:00,56.7,32.0,29.50,NE,45,3.1,3.1,39,0.00,,OVC240,0.00,VWS V14.01,2013-03-09 13:30:00,
2013-03-09 07:39:00,48.4,32.5,29.50,NE,45,1.3,2.2,54,0.00,,OVC240,0.00,VWS V14.01,2013-03-09 13:39:00,
2013-03-09 07:40:00,58.8,32.6,29.50,North,0,1.3,1.3,37,0.00,,OVC240,0.00,VWS V14.01,2013-03-09 13:40:00,
2013-03-09 07:49:00,48.0,31.7,29.50,ENE,68,1.1,1.3,53,0.00,,OVC240,0.00,VWS V14.01,2013-03-09 13:49:00,
2013-03-09 07:50:00,58.8,32.6,29.50,SE,135,2.9,4.9,37,0.00,,OVC240,0.00,VWS V14.01,2013-03-09 13:50:00,
2013-03-09 07:59:00,49.5,31.6,29.50,NE,45,2.9,2.9,50,0.00,,OVC240,0.00,VWS V14.01,2013-03-09 13:59:00,
2013-03-09 08:00:00,59.4,32.4,29.50,SE,135,1.3,2.0,36,0.00,,OVC240,0.00,VWS V14.01,2013-03-09 14:00:00,
2013-03-09 08:09:00,53.2,34.1,29.50,SSE,158,2.0,2.0,48,0.00,,OVC240,0.00,VWS V14.01,2013-03-09 14:09:00,
2013-03-09 08:10:00,60.3,33.2,29.50,SSE,158,3.4,3.4,36,0.00,,OVC240,0.00,VWS V14.01,2013-03-09 14:10:00,
2013-03-09 08:19:00,55.8,32.4,29.50,SSE,158,2.9,3.8,41,0.00,,OVC240,0.00,VWS V14.01,2013-03-09 14:19:00,
2013-03-09 08:20:00,57.9,31.1,29.50,South,180,3.1,3.1,36,0.00,,OVC240,0.00,VWS V14.01,2013-03-09 14:20:00,
2013-03-09 08:29:00,56.7,32.0,29.50,NE,45,3.1,3.1,39,0.00,,OVC240,0.00,VWS V14.01,2013-03-09 14:29:00,
2013-03-09 08:30:00,57.4,30.0,29.50,West,270,3.1,3.1,35,0.00,,OVC240,0.00,VWS V14.01,2013-03-09 14:30:00,
2013-03-09 08:40:00,57.0,30.4,29.50,SSE,158,2.7,2.7,36,0.00,,OVC240,0.00,VWS V14.01,2013-03-09 14:40:00,
2013-03-09 08:42:00,58.8,32.6,29.50,North,0,1.3,1.3,37,0.00,,OVC240,0.00,VWS V14.01,2013-03-09 14:42:00,
2013-03-09 08:49:00,58.8,32.6,29.50,SE,135,2.9,4.9,37,0.00,,OVC240,0.00,VWS V14.01,2013-03-09 14:49:00,
2013-03-09 08:50:00,58.1,30.6,29.50,ESE,112,3.1,3.8,35,0.00,,OVC240,0.00,VWS V14.01,2013-03-09 14:50:00,
2013-03-09 08:59:00,59.4,32.4,29.50,SE,135,1.3,2.0,36,0.00,,OVC240,0.00,VWS V14.01,2013-03-09 14:59:00,
2013-03-09 09:00:00,60.1,32.4,29.50,WSW,248,2.7,4.0,35,0.00,,OVC240,0.00,VWS V14.01,2013-03-09 15:00:00,
2013-03-09 09:09:00,60.3,33.2,29.50,SSE,158,3.4,3.4,36,0.00,,OVC240,0.00,VWS V14.01,2013-03-09 15:09:00,
2013-03-09 09:10:00,60.6,32.8,29.50,SE,135,3.1,3.1,35,0.00,,OVC240,0.00,VWS V14.01,2013-03-09 15:10:00,
2013-03-09 09:19:00,57.9,31.1,29.50,South,180,3.1,3.1,36,0.00,,OVC240,0.00,VWS V14.01,2013-03-09 15:19:00,
2013-03-09 09:20:00,60.8,33.0,29.53,NNE,22,0.9,2.0,35,0.00,,OVC240,0.00,VWS V14.01,2013-03-09 15:20:00,
2013-03-09 09:29:00,57.4,30.0,29.50,West,270,3.1,3.1,35,0.00,,OVC240,0.00,VWS V14.01,2013-03-09 15:29:00,
2013-03-09 09:30:00,61.7,33.1,29.50,SE,135,7.8,7.8,34,0.00,,OVC240,0.00,VWS V14.01,2013-03-09 15:30:00,
2013-03-09 09:39:00,57.0,30.4,29.50,SSE,158,2.7,2.7,36,0.00,,OVC240,0.00,VWS V14.01,2013-03-09 15:39:00,
2013-03-09 09:40:00,62.1,33.4,29.50,SE,135,1.1,3.6,34,0.00,,OVC240,0.00,VWS V14.01,2013-03-09 15:40:00,
2013-03-09 09:49:00,58.1,30.6,29.50,ESE,112,3.1,3.8,35,0.00,,OVC240,0.00,VWS V14.01,2013-03-09 15:49:00,
2013-03-09 09:50:00,62.1,33.4,29.47,NE,45,2.5,2.5,34,0.00,,OVC240,0.00,VWS V14.01,2013-03-09 15:50:00,
2013-03-09 09:59:00,60.1,32.4,29.50,WSW,248,2.7,4.0,35,0.00,,OVC240,0.00,VWS V14.01,2013-03-09 15:59:00,
2013-03-09 10:00:00,63.1,33.6,29.47,North,0,2.0,2.0,33,0.00,,OVC240,0.00,VWS V14.01,2013-03-09 16:00:00,
2013-03-09 10:09:00,60.6,32.8,29.50,SE,135,3.1,3.1,35,0.00,,OVC240,0.00,VWS V14.01,2013-03-09 16:09:00,
2013-03-09 10:10:00,64.0,34.4,29.47,North,0,2.5,2.5,33,0.00,,OVC240,0.00,VWS V14.01,2013-03-09 16:10:00,
2013-03-09 10:19:00,60.8,33.0,29.53,NNE,22,0.9,2.0,35,0.00,,OVC240,0.00,VWS V14.01,2013-03-09 16:19:00,
2013-03-09 10:20:00,63.0,33.4,29.47,NNE,22,1.6,2.0,33,0.00,,OVC240,0.00,VWS V14.01,2013-03-09 16:20:00,
2013-03-09 10:29:00,61.7,33.1,29.50,SE,135,7.8,7.8,34,0.00,,OVC240,0.00,VWS V14.01,2013-03-09 16:29:00,
2013-03-09 10:39:00,62.1,33.4,29.50,SE,135,1.1,3.6,34,0.00,,OVC240,0.00,VWS V14.01,2013-03-09 16:39:00,
2013-03-09 10:49:00,62.1,33.4,29.47,NE,45,2.5,2.5,34,0.00,,OVC240,0.00,VWS V14.01,2013-03-09 16:49:00,
2013-03-09 10:59:00,63.1,33.6,29.47,North,0,2.0,2.0,33,0.00,,OVC240,0.00,VWS V14.01,2013-03-09 16:59:00,
2013-03-09 11:01:00,61.9,33.2,29.44,ESE,112,2.5,2.5,34,0.00,,OVC240,0.00,VWS V14.01,2013-03-09 17:01:00,
2013-03-09 11:09:00,64.0,34.4,29.47,North,0,2.5,2.5,33,0.00,,OVC240,0.00,VWS V14.01,2013-03-09 17:09:00,
2013-03-09 11:10:00,63.5,34.7,29.44,NE,45,1.6,1.6,34,0.00,,OVC240,0.00,VWS V14.01,2013-03-09 17:10:00,
2013-03-09 11:19:00,63.0,33.4,29.47,NNE,22,1.6,2.0,33,0.00,,OVC240,0.00,VWS V14.01,2013-03-09 17:19:00,
2013-03-09 11:30:00,66.7,36.8,29.44,NE,45,2.2,3.4,33,0.00,,OVC240,0.00,VWS V14.01,2013-03-09 17:30:00,
2013-03-09 11:40:00,69.3,37.4,29.44,NE,45,1.3,5.4,31,0.00,,OVC240,0.00,VWS V14.01,2013-03-09 17:40:00,
2013-03-09 11:50:00,70.5,39.3,29.44,North,0,2.7,3.6,32,0.00,,OVC240,0.00,VWS V14.01,2013-03-09 17:50:00,
2013-03-09 12:00:00,70.5,36.8,29.44,NW,315,1.6,1.6,29,0.00,,OVC240,0.00,VWS V14.01,2013-03-09 18:00:00,
2013-03-09 12:01:00,61.9,33.2,29.44,ESE,112,2.5,2.5,34,0.00,,OVC240,0.00,VWS V14.01,2013-03-09 18:01:00,
2013-03-09 12:09:00,63.5,34.7,29.44,NE,45,1.6,1.6,34,0.00,,OVC240,0.00,VWS V14.01,2013-03-09 18:09:00,
2013-03-09 12:10:00,69.8,36.1,29.44,NE,45,1.3,1.3,29,0.00,,OVC240,0.00,VWS V14.01,2013-03-09 18:10:00,
2013-03-09 12:20:00,68.2,35.6,29.44,ESE,112,1.6,2.0,30,0.00,,OVC240,0.00,VWS V14.01,2013-03-09 18:20:00,
2013-03-09 12:29:00,66.7,36.8,29.44,NE,45,2.2,3.4,33,0.00,,OVC240,0.00,VWS V14.01,2013-03-09 18:29:00,
2013-03-09 12:30:00,66.7,33.5,29.44,SE,135,4.9,5.8,29,0.00,,OVC240,0.00,VWS V14.01,2013-03-09 18:30:00,
2013-03-09 12:39:00,69.3,37.4,29.44,NE,45,1.3,5.4,31,0.00,,OVC240,0.00,VWS V14.01,2013-03-09 18:39:00,
2013-03-09 12:40:00,65.5,33.3,29.44,SE,135,4.9,5.6,30,0.00,,OVC240,0.00,VWS V14.01,2013-03-09 18:40:00,
2013-03-09 12:49:00,70.5,39.3,29.44,North,0,2.7,3.6,32,0.00,,OVC240,0.00,VWS V14.01,2013-03-09 18:49:00,
2013-03-09 12:59:00,70.5,36.8,29.44,NW,315,1.6,1.6,29,0.00,,OVC240,0.00,VWS V14.01,2013-03-09 18:59:00,
2013-03-09 13:09:00,69.8,36.1,29.44,NE,45,1.3,1.3,29,0.00,,OVC240,0.00,VWS V14.01,2013-03-09 19:09:00,
2013-03-09 13:19:00,68.2,35.6,29.44,ESE,112,1.6,2.0,30,0.00,,OVC240,0.00,VWS V14.01,2013-03-09 19:19:00,
2013-03-09 13:29:00,66.7,33.5,29.44,SE,135,4.9,5.8,29,0.00,,OVC240,0.00,VWS V14.01,2013-03-09 19:29:00,
2013-03-09 13:39:00,65.5,33.3,29.44,SE,135,4.9,5.6,30,0.00,,OVC240,0.00,VWS V14.01,2013-03-09 19:39:00,
2013-03-09 14:01:00,63.7,34.1,29.41,SE,135,1.6,1.6,33,0.00,,OVC240,0.00,VWS V14.01,2013-03-09 20:01:00,
2013-03-09 14:10:00,63.3,33.8,29.41,SW,225,0.9,1.3,33,0.00,,OVC240,0.00,VWS V14.01,2013-03-09 20:10:00,
2013-03-09 14:28:00,62.4,33.7,29.41,SE,135,1.6,1.6,34,0.00,,OVC240,0.00,VWS V14.01,2013-03-09 20:28:00,
2013-03-09 14:40:00,62.6,33.1,29.41,SE,135,1.6,1.6,33,0.00,,OVC240,0.00,VWS V14.01,2013-03-09 20:40:00,
2013-03-09 14:50:00,63.1,33.6,29.41,SSE,158,3.1,3.1,33,0.00,,OVC240,0.00,VWS V14.01,2013-03-09 20:50:00,
2013-03-09 15:00:00,63.7,34.8,29.38,SE,135,1.6,1.6,34,0.00,,OVC240,0.00,VWS V14.01,2013-03-09 21:00:00,
2013-03-09 15:01:00,63.7,34.1,29.41,SE,135,1.6,1.6,33,0.00,,OVC240,0.00,VWS V14.01,2013-03-09 21:01:00,
2013-03-09 15:09:00,63.3,33.8,29.41,SW,225,0.9,1.3,33,0.00,,OVC240,0.00,VWS V14.01,2013-03-09 21:09:00,
2013-03-09 15:20:00,62.6,33.9,29.38,SSW,202,0.0,0.0,34,0.00,,OVC240,0.00,VWS V14.01,2013-03-09 21:20:00,
2013-03-09 15:30:00,62.4,33.7,29.41,SE,135,1.6,1.6,34,0.00,,OVC240,0.00,VWS V14.01,2013-03-09 21:30:00,
2013-03-09 15:39:00,62.6,33.1,29.41,SE,135,1.6,1.6,33,0.00,,OVC240,0.00,VWS V14.01,2013-03-09 21:39:00,
2013-03-09 15:40:00,61.3,32.8,29.35,NE,45,2.7,2.7,34,0.00,,OVC240,0.00,VWS V14.01,2013-03-09 21:40:00,
2013-03-09 15:49:00,63.1,33.6,29.41,SSE,158,3.1,3.1,33,0.00,,OVC240,0.00,VWS V14.01,2013-03-09 21:49:00,
2013-03-09 15:50:00,61.0,32.4,29.35,NE,45,2.7,2.7,34,0.00,,OVC240,0.00,VWS V14.01,2013-03-09 21:50:00,
2013-03-09 15:59:00,63.7,34.8,29.38,SE,135,1.6,1.6,34,0.00,,OVC240,0.00,VWS V14.01,2013-03-09 21:59:00,
2013-03-09 16:00:00,60.6,32.8,29.35,NE,45,2.7,2.7,35,0.00,,OVC240,0.00,VWS V14.01,2013-03-09 22:00:00,
2013-03-09 16:10:00,59.7,32.0,29.35,NE,45,2.7,2.7,35,0.00,,OVC240,0.00,VWS V14.01,2013-03-09 22:10:00,
2013-03-09 16:19:00,62.6,33.9,29.38,SSW,202,0.0,0.0,34,0.00,,OVC240,0.00,VWS V14.01,2013-03-09 22:19:00,
2013-03-09 16:20:00,58.1,31.3,29.38,NE,45,2.7,2.7,36,0.00,,OVC240,0.00,VWS V14.01,2013-03-09 22:20:00,
2013-03-09 16:29:00,62.1,33.4,29.35,SSW,202,0.0,0.0,34,0.00,,OVC240,0.00,VWS V14.01,2013-03-09 22:29:00,
2013-03-09 16:30:00,57.0,30.4,29.38,NE,45,2.7,2.7,36,0.00,,OVC240,0.00,VWS V14.01,2013-03-09 22:30:00,
2013-03-09 16:39:00,61.3,32.8,29.35,NE,45,2.7,2.7,34,0.00,,OVC240,0.00,VWS V14.01,2013-03-09 22:39:00,
2013-03-09 16:40:00,56.1,30.2,29.38,NE,45,2.7,2.7,37,0.00,,OVC240,0.00,VWS V14.01,2013-03-09 22:40:00,
2013-03-09 16:49:00,61.0,32.4,29.35,NE,45,2.7,2.7,34,0.00,,OVC240,0.00,VWS V14.01,2013-03-09 22:49:00,
2013-03-09 16:50:00,54.3,29.3,29.38,NNW,338,2.2,2.2,38,0.00,,OVC240,0.00,VWS V14.01,2013-03-09 22:50:00,
2013-03-09 16:59:00,60.6,32.8,29.35,NE,45,2.7,2.7,35,0.00,,OVC240,0.00,VWS V14.01,2013-03-09 22:59:00,
2013-03-09 17:00:00,52.3,29.4,29.38,NW,315,2.0,2.0,41,0.00,,OVC240,0.00,VWS V14.01,2013-03-09 23:00:00,
2013-03-09 17:09:00,59.7,32.0,29.35,NE,45,2.7,2.7,35,0.00,,OVC240,0.00,VWS V14.01,2013-03-09 23:09:00,
2013-03-09 17:10:00,51.3,29.5,29.38,NW,315,2.0,2.0,43,0.00,,OVC240,0.00,VWS V14.01,2013-03-09 23:10:00,
2013-03-09 17:19:00,58.1,31.3,29.38,NE,45,2.7,2.7,36,0.00,,OVC240,0.00,VWS V14.01,2013-03-09 23:19:00,
2013-03-09 17:20:00,50.7,30.2,29.38,NW,315,1.1,1.1,45,0.00,,OVC240,0.00,VWS V14.01,2013-03-09 23:20:00,
2013-03-09 17:29:00,57.0,30.4,29.38,NE,45,2.7,2.7,36,0.00,,OVC240,0.00,VWS V14.01,2013-03-09 23:29:00,
2013-03-09 17:30:00,50.0,30.0,29.38,SW,225,0.0,0.0,46,0.00,,OVC240,0.00,VWS V14.01,2013-03-09 23:30:00,
2013-03-09 17:39:00,56.1,30.2,29.38,NE,45,2.7,2.7,37,0.00,,OVC240,0.00,VWS V14.01,2013-03-09 23:39:00,
2013-03-09 17:40:00,50.4,30.9,29.38,SW,225,0.0,0.0,47,0.00,,OVC240,0.00,VWS V14.01,2013-03-09 23:40:00,
2013-03-09 17:49:00,54.3,29.3,29.38,NNW,338,2.2,2.2,38,0.00,,OVC240,0.00,VWS V14.01,2013-03-09 23:49:00,
2013-03-09 17:50:00,50.4,30.9,29.38,SW,225,0.0,0.0,47,0.00,,OVC240,0.00,VWS V14.01,2013-03-09 23:50:00,
2013-03-09 17:59:00,52.3,29.4,29.38,NW,315,2.0,2.0,41,0.00,,OVC240,0.00,VWS V14.01,2013-03-09 23:59:00,
2013-03-09 18:00:00,51.4,31.9,29.38,SW,225,0.0,0.0,47,0.00,,OVC240,0.00,VWS V14.01,2013-03-10 00:00:00,
2013-03-09 18:09:00,51.3,29.5,29.38,NW,315,2.0,2.0,43,0.00,,OVC240,0.00,VWS V14.01,2013-03-10 00:09:00,
2013-03-09 18:10:00,52.3,32.2,29.38,SW,225,0.0,0.0,46,0.00,,OVC240,0.00,VWS V14.01,2013-03-10 00:10:00,
2013-03-09 18:19:00,50.7,30.2,29.38,NW,315,1.1,1.1,45,0.00,,OVC240,0.00,VWS V14.01,2013-03-10 00:19:00,
2013-03-09 18:20:00,53.1,32.3,29.35,SW,225,0.0,0.0,45,0.00,,OVC240,0.00,VWS V14.01,2013-03-10 00:20:00,
2013-03-09 18:29:00,50.0,30.0,29.38,SW,225,0.0,0.0,46,0.00,,OVC240,0.00,VWS V14.01,2013-03-10 00:29:00,
2013-03-09 18:30:00,51.8,31.1,29.38,SW,225,0.0,0.0,45,0.00,,OVC240,0.00,VWS V14.01,2013-03-10 00:30:00,
2013-03-09 18:39:00,50.4,30.9,29.38,SW,225,0.0,0.0,47,0.00,,OVC240,0.00,VWS V14.01,2013-03-10 00:39:00,
2013-03-09 18:40:00,50.5,30.5,29.38,SW,225,0.0,0.0,46,0.00,,OVC240,0.00,VWS V14.01,2013-03-10 00:40:00,
2013-03-09 18:49:00,50.4,30.9,29.38,SW,225,0.0,0.0,47,0.00,,OVC240,0.00,VWS V14.01,2013-03-10 00:49:00,
2013-03-09 18:50:00,50.2,30.8,29.38,NW,315,2.5,2.5,47,0.00,,OVC240,0.00,VWS V14.01,2013-03-10 00:50:00,
2013-03-09 18:59:00,51.4,31.9,29.38,SW,225,0.0,0.0,47,0.00,,OVC240,0.00,VWS V14.01,2013-03-10 00:59:00,
2013-03-09 19:00:00,49.8,30.9,29.38,SSW,202,0.0,0.0,48,0.00,,OVC240,0.00,VWS V14.01,2013-03-10 01:00:00,
2013-03-09 19:09:00,52.3,32.2,29.38,SW,225,0.0,0.0,46,0.00,,OVC240,0.00,VWS V14.01,2013-03-10 01:09:00,
2013-03-09 19:10:00,49.8,30.9,29.38,SSW,202,0.0,0.0,48,0.00,,OVC240,0.00,VWS V14.01,2013-03-10 01:10:00,
2013-03-09 19:19:00,53.1,32.3,29.35,SW,225,0.0,0.0,45,0.00,,OVC240,0.00,VWS V14.01,2013-03-10 01:19:00,
2013-03-09 19:20:00,49.6,30.8,29.38,NW,315,1.6,1.6,48,0.00,,OVC240,0.00,VWS V14.01,2013-03-10 01:20:00,
2013-03-09 19:29:00,51.8,31.1,29.38,SW,225,0.0,0.0,45,0.00,,OVC240,0.00,VWS V14.01,2013-03-10 01:29:00,
2013-03-09 19:30:00,50.2,31.3,29.41,WNW,292,1.1,1.1,48,0.00,,OVC240,0.00,VWS V14.01,2013-03-10 01:30:00,
2013-03-09 19:39:00,50.5,30.5,29.38,SW,225,0.0,0.0,46,0.00,,OVC240,0.00,VWS V14.01,2013-03-10 01:39:00,
2013-03-09 19:40:00,50.7,31.8,29.41,NNW,338,2.9,2.9,48,0.00,,OVC240,0.00,VWS V14.01,2013-03-10 01:40:00,
2013-03-09 19:49:00,50.2,30.8,29.38,NW,315,2.5,2.5,47,0.00,,OVC240,0.00,VWS V14.01,2013-03-10 01:49:00,
2013-03-09 19:50:00,50.9,31.4,29.35,NNW,338,0.0,0.0,47,0.00,,OVC240,0.00,VWS V14.01,2013-03-10 01:50:00,
2013-03-09 19:59:00,49.8,30.9,29.38,SSW,202,0.0,0.0,48,0.00,,OVC240,0.00,VWS V14.01,2013-03-10 01:59:00,
2013-03-09 20:00:00,52.9,32.7,29.38,NW,315,1.1,1.1,46,0.00,,OVC240,0.00,VWS V14.01,2013-03-10 02:00:00,
2013-03-09 20:09:00,49.8,30.9,29.38,SSW,202,0.0,0.0,48,0.00,,OVC240,0.00,VWS V14.01,2013-03-10 02:09:00,
2013-03-09 20:10:00,52.7,32.0,29.38,SW,225,1.6,5.8,45,0.00,,OVC240,0.00,VWS V14.01,2013-03-10 02:10:00,
2013-03-09 20:19:00,49.6,30.8,29.38,NW,315,1.6,1.6,48,0.00,,OVC240,0.00,VWS V14.01,2013-03-10 02:19:00,
2013-03-09 20:20:00,52.7,32.0,29.38,WNW,292,1.1,1.1,45,0.00,,OVC240,0.00,VWS V14.01,2013-03-10 02:20:00,
2013-03-09 20:29:00,50.2,31.3,29.41,WNW,292,1.1,1.1,48,0.00,,OVC240,0.00,VWS V14.01,2013-03-10 02:29:00,
2013-03-09 20:30:00,52.0,31.9,29.35,WNW,292,0.0,0.0,46,0.00,,OVC240,0.00,VWS V14.01,2013-03-10 02:30:00,
2013-03-09 20:39:00,50.7,31.8,29.41,NNW,338,2.9,2.9,48,0.00,,OVC240,0.00,VWS V14.01,2013-03-10 02:39:00,
2013-03-09 20:40:00,51.8,31.1,29.35,WSW,248,1.3,2.2,45,0.00,,OVC240,0.00,VWS V14.01,2013-03-10 02:40:00,
2013-03-09 20:49:00,50.9,31.4,29.35,NNW,338,0.0,0.0,47,0.00,,OVC240,0.00,VWS V14.01,2013-03-10 02:49:00,
2013-03-09 20:50:00,53.1,32.3,29.41,WSW,248,0.0,0.9,45,0.00,,OVC240,0.00,VWS V14.01,2013-03-10 02:50:00,
2013-03-09 20:59:00,52.9,32.7,29.38,NW,315,1.1,1.1,46,0.00,,OVC240,0.00,VWS V14.01,2013-03-10 02:59:00,
2013-03-09 21:00:00,52.5,31.8,29.41,SW,225,4.0,4.0,45,0.00,,OVC240,0.00,VWS V14.01,2013-03-10 03:00:00,
2013-03-09 21:09:00,52.7,32.0,29.38,SW,225,1.6,5.8,45,0.00,,OVC240,0.00,VWS V14.01,2013-03-10 03:09:00,
2013-03-09 21:10:00,53.2,31.9,29.41,SSW,202,5.8,5.8,44,0.00,,OVC240,0.00,VWS V14.01,2013-03-10 03:10:00,
2013-03-09 21:19:00,52.7,32.0,29.38,WNW,292,1.1,1.1,45,0.00,,OVC240,0.00,VWS V14.01,2013-03-10 03:19:00,
2013-03-09 21:20:00,54.9,32.2,29.38,West,270,2.2,3.6,42,0.00,,OVC240,0.00,VWS V14.01,2013-03-10 03:20:00,
2013-03-09 21:29:00,52.0,31.9,29.35,WNW,292,0.0,0.0,46,0.00,,OVC240,0.00,VWS V14.01,2013-03-10 03:29:00,
2013-03-09 21:30:00,55.4,32.1,29.35,SE,135,2.0,2.0,41,0.00,,OVC240,0.00,VWS V14.01,2013-03-10 03:30:00,
2013-03-09 21:39:00,51.8,31.1,29.35,WSW,248,1.3,2.2,45,0.00,,OVC240,0.00,VWS V14.01,2013-03-10 03:39:00,
2013-03-09 21:40:00,56.1,32.2,29.35,WSW,248,3.6,3.6,40,0.00,,OVC240,0.00,VWS V14.01,2013-03-10 03:40:00,
2013-03-09 21:48:00,56.5,32.5,29.35,SW,225,2.5,2.5,40,0.00,,OVC240,0.00,VWS V14.01,2013-03-10 03:48:00,
2013-03-09 21:49:00,53.1,32.3,29.41,WSW,248,0.0,0.9,45,0.00,,OVC240,0.00,VWS V14.01,2013-03-10 03:49:00,
2013-03-09 21:58:00,55.9,32.0,29.35,West,270,0.0,2.5,40,0.00,,OVC240,0.00,VWS V14.01,2013-03-10 03:58:00,
2013-03-09 21:59:00,52.5,31.8,29.41,SW,225,4.0,4.0,45,0.00,,OVC240,0.00,VWS V14.01,2013-03-10 03:59:00,
2013-03-09 22:08:00,54.9,31.6,29.35,West,270,2.5,2.5,41,0.00,,OVC240,0.00,VWS V14.01,2013-03-10 04:08:00,
2013-03-09 22:09:00,53.2,31.9,29.41,SSW,202,5.8,5.8,44,0.00,,OVC240,0.00,VWS V14.01,2013-03-10 04:09:00,
2013-03-09 22:18:00,54.7,31.5,29.35,NW,315,2.0,2.5,41,0.00,,OVC240,0.00,VWS V14.01,2013-03-10 04:18:00,
2013-03-09 22:19:00,54.9,32.2,29.38,West,270,2.2,3.6,42,0.00,,OVC240,0.00,VWS V14.01,2013-03-10 04:19:00,
2013-03-09 22:28:00,55.2,32.0,29.35,SE,135,0.0,2.5,41,0.00,,OVC240,0.00,VWS V14.01,2013-03-10 04:28:00,
2013-03-09 22:29:00,55.4,32.1,29.35,SE,135,2.0,2.0,41,0.00,,OVC240,0.00,VWS V14.01,2013-03-10 04:29:00,
2013-03-09 22:38:00,55.0,31.8,29.35,WSW,248,0.0,2.5,41,0.00,,OVC240,0.00,VWS V14.01,2013-03-10 04:38:00,
2013-03-09 22:39:00,56.1,32.2,29.35,WSW,248,3.6,3.6,40,0.00,,OVC240,0.00,VWS V14.01,2013-03-10 04:39:00,
2013-03-09 22:48:00,54.3,31.1,29.35,North,0,2.2,2.5,41,0.00,,OVC240,0.00,VWS V14.01,2013-03-10 04:48:00,
2013-03-09 22:58:00,53.8,31.2,29.35,NW,315,2.0,2.2,42,0.00,,OVC240,0.00,VWS V14.01,2013-03-10 04:58:00,
2013-03-09 23:08:00,53.1,30.6,29.35,NNW,338,1.3,2.2,42,0.00,,OVC240,0.00,VWS V14.01,2013-03-10 05:08:00,
2013-03-09 23:18:00,52.3,30.5,29.35,NW,315,2.5,2.5,43,0.00,,OVC240,0.00,VWS V14.01,2013-03-10 05:18:00,
2013-03-09 23:28:00,52.3,31.1,29.35,NW,315,2.0,2.5,44,0.00,,OVC240,0.00,VWS V14.01,2013-03-10 05:28:00,
2013-03-09 23:38:00,51.4,30.3,29.35,NW,315,0.0,2.5,44,0.00,,OVC240,0.00,VWS V14.01,2013-03-10 05:38:00,
2013-03-09 23:48:00,51.4,30.8,29.32,WNW,292,3.1,3.1,45,0.00,,OVC240,0.00,VWS V14.01,2013-03-10 05:48:00,
2013-03-09 23:58:00,52.2,30.9,29.32,NW,315,1.6,3.1,44,0.00,,OVC240,0.00,VWS V14.01,2013-03-10 05:58:00,